Time;durP1;ratioP1;P1;durP2;ratioP2;P2;SDS_P1;SDS_P2;PMS_P1;PMS_P2;Temp;Humidity;BMP_temperature;BMP_pressure;BME280_temperature;BME280_humidity;BME280_pressure;Samples;Min_cycle;Max_cycle;Signal;HPM_P1;HPM_P2
2021/12/03 00:01:38;;;;;;;1.60;1.30;;;;;;;;;;5052878;28;20057;-74
2021/12/03 00:04:05;;;;;;;4.95;1.60;;;;;;;;;;5054052;28;20087;-74
2021/12/03 00:06:35;;;;;;;2.88;1.55;;;;;;;;;;5039344;28;20067;-74
2021/12/03 00:09:03;;;;;;;4.05;1.40;;;;;;;;;;5053899;28;20098;-73
2021/12/03 00:11:29;;;;;;;4.03;1.83;;;;;;;;;;5053842;28;20080;-73
2021/12/03 00:13:55;;;;;;;4.22;1.67;;;;;;;;;;5053583;28;20067;-73
2021/12/03 00:16:22;;;;;;;4.65;1.80;;;;;;;;;;5053865;28;20085;-71
2021/12/03 00:18:48;;;;;;;4.68;1.40;;;;;;;;;;5053863;28;20124;-71
2021/12/03 00:21:17;;;;;;;4.20;1.90;;;;;;;;;;5054331;28;20052;-71
2021/12/03 00:23:43;;;;;;;4.80;1.70;;;;;;;;;;5052602;28;20100;-72
2021/12/03 00:26:10;;;;;;;4.65;2.03;;;;;;;;;;5052473;28;20523;-72
2021/12/03 00:28:38;;;;;;;3.58;1.83;;;;;;;;;;5053949;28;20082;-72
2021/12/03 00:31:05;;;;;;;3.40;2.00;;;;;;;;;;5053708;28;20099;-73
2021/12/03 00:33:32;;;;;;;2.97;1.90;;;;;;;;;;5053544;28;20128;-73
2021/12/03 00:36:03;;;;;;;3.92;2.15;;;;;;;;;;5051999;28;20049;-70
2021/12/03 00:38:35;;;;;;;3.17;1.73;;;;;;;;;;5053710;28;20048;-66
2021/12/03 00:41:04;;;;;;;5.32;2.00;;;;;;;;;;5053951;28;20049;-66
2021/12/03 00:43:30;;;;;;;3.55;2.30;;;;;;;;;;5053315;28;20084;-66
2021/12/03 00:46:04;;;;;;;8.25;2.38;;;;;;;;;;5053245;28;20045;-67
2021/12/03 00:48:31;;;;;;;3.15;1.98;;;;;;;;;;5052300;28;20053;-67
2021/12/03 00:50:58;;;;;;;5.10;2.13;;;;;;;;;;5053609;28;20080;-67
2021/12/03 00:53:24;;;;;;;6.32;2.63;;;;;;;;;;5053275;28;20084;-67
2021/12/03 00:55:50;;;;;;;4.45;2.50;;;;;;;;;;5053411;28;20493;-67
2021/12/03 00:58:17;;;;;;;4.32;2.33;;;;;;;;;;5053228;28;20508;-67
2021/12/03 01:00:44;;;;;;;4.22;2.58;;;;;;;;;;5053552;28;20045;-67
2021/12/03 01:03:11;;;;;;;7.25;2.83;;;;;;;;;;5052438;28;20052;-67
2021/12/03 01:05:37;;;;;;;5.68;3.22;;;;;;;;;;5053304;28;20045;-67
2021/12/03 01:08:03;;;;;;;3.75;2.13;;;;;;;;;;5053057;28;20128;-67
2021/12/03 01:10:30;;;;;;;4.95;2.22;;;;;;;;;;5052880;28;20095;-68
2021/12/03 01:12:56;;;;;;;4.38;2.33;;;;;;;;;;5052872;28;20061;-68
2021/12/03 01:15:33;;;;;;;7.32;2.90;;;;;;;;;;5052798;28;20049;-68
2021/12/03 01:18:00;;;;;;;4.55;2.22;;;;;;;;;;5052951;28;20104;-68
2021/12/03 01:20:27;;;;;;;5.97;2.13;;;;;;;;;;5053061;28;20079;-68
2021/12/03 01:22:54;;;;;;;6.30;2.22;;;;;;;;;;5051590;28;20139;-69
2021/12/03 01:25:21;;;;;;;7.00;1.98;;;;;;;;;;5052640;28;20452;-68
2021/12/03 01:27:48;;;;;;;3.10;1.55;;;;;;;;;;5052499;28;20077;-68
2021/12/03 01:30:16;;;;;;;4.57;2.10;;;;;;;;;;5052909;28;20041;-68
2021/12/03 01:32:42;;;;;;;;;;;;;;;;;;5052855;28;20080;-68
2021/12/03 01:35:09;;;;;;;5.05;2.22;;;;;;;;;;5052727;28;19921;-68
2021/12/03 01:37:36;;;;;;;2.90;1.95;;;;;;;;;;5051494;28;20053;-68
2021/12/03 01:40:07;;;;;;;4.85;2.50;;;;;;;;;;5052193;28;20132;-69
2021/12/03 01:42:33;;;;;;;6.13;2.55;;;;;;;;;;5052529;28;20087;-69
2021/12/03 01:44:59;;;;;;;4.82;2.25;;;;;;;;;;5052381;28;20453;-68
2021/12/03 01:47:26;;;;;;;5.68;2.22;;;;;;;;;;5052537;28;20413;-69
2021/12/03 01:49:52;;;;;;;4.68;2.38;;;;;;;;;;5052120;28;20092;-69
2021/12/03 01:52:19;;;;;;;4.30;2.63;;;;;;;;;;5052144;28;20049;-69
2021/12/03 01:54:45;;;;;;;5.78;2.67;;;;;;;;;;5052056;28;20094;-69
2021/12/03 01:57:12;;;;;;;3.53;2.30;;;;;;;;;;5052308;28;20105;-68
2021/12/03 01:59:38;;;;;;;4.88;2.85;;;;;;;;;;5052225;28;20084;-69
2021/12/03 02:02:05;;;;;;;3.42;2.80;;;;;;;;;;5052139;28;20084;-69
2021/12/03 02:04:32;;;;;;;5.28;2.47;;;;;;;;;;5052059;28;20045;-68
2021/12/03 02:06:58;;;;;;;2.85;2.00;;;;;;;;;;5051930;28;20045;-70
2021/12/03 02:09:24;;;;;;;3.42;2.13;;;;;;;;;;5051945;28;20081;-69
2021/12/03 02:11:51;;;;;;;3.88;2.10;;;;;;;;;;5051900;28;20102;-69
2021/12/03 02:14:20;;;;;;;;;;;;;;;;;;5052074;28;20045;-69
2021/12/03 02:16:47;;;;;;;3.28;1.27;;;;;;;;;;5052096;28;19979;-70
2021/12/03 02:19:13;;;;;;;3.88;1.48;;;;;;;;;;5051882;28;20091;-70
2021/12/03 02:21:40;;;;;;;2.55;1.27;;;;;;;;;;5051714;28;20080;-70
2021/12/03 02:24:07;;;;;;;3.97;1.30;;;;;;;;;;5051757;28;20084;-70
2021/12/03 02:26:34;;;;;;;6.88;1.40;;;;;;;;;;5051915;28;20401;-70
2021/12/03 02:29:00;;;;;;;6.80;2.35;;;;;;;;;;5051793;28;20076;-70
2021/12/03 02:31:26;;;;;;;4.45;1.27;;;;;;;;;;5050472;28;20076;-70
2021/12/03 02:33:53;;;;;;;3.97;1.10;;;;;;;;;;5051693;28;20063;-71
2021/12/03 02:36:20;;;;;;;2.92;0.90;;;;;;;;;;5051598;28;20135;-71
2021/12/03 02:38:46;;;;;;;2.67;1.20;;;;;;;;;;5051753;28;20106;-71
2021/12/03 02:41:13;;;;;;;3.15;0.98;;;;;;;;;;5051407;28;20049;-71
2021/12/03 02:43:39;;;;;;;3.70;1.27;;;;;;;;;;5051371;28;20489;-72
2021/12/03 02:46:06;;;;;;;3.85;1.23;;;;;;;;;;5050119;28;20489;-71
2021/12/03 02:48:35;;;;;;;3.47;1.13;;;;;;;;;;5051601;28;20048;-71
2021/12/03 02:51:03;;;;;;;2.38;1.30;;;;;;;;;;5051447;28;20512;-70
2021/12/03 02:53:29;;;;;;;4.22;1.30;;;;;;;;;;5051423;28;20535;-70
2021/12/03 02:55:56;;;;;;;1.90;1.45;;;;;;;;;;5050115;28;20049;-69
2021/12/03 02:58:22;;;;;;;2.35;1.38;;;;;;;;;;5051661;28;20132;-70
2021/12/03 03:00:50;;;;;;;3.13;1.30;;;;;;;;;;5051591;28;20057;-70
2021/12/03 03:03:17;;;;;;;2.27;1.50;;;;;;;;;;5051450;28;20294;-71
2021/12/03 03:05:57;;;;;;;2.20;1.27;;;;;;;;;;5051193;28;20136;-70
2021/12/03 03:08:24;;;;;;;1.98;1.20;;;;;;;;;;5051402;28;20091;-71
2021/12/03 03:10:52;;;;;;;3.78;1.30;;;;;;;;;;5051271;28;20049;-71
2021/12/03 03:13:18;;;;;;;3.00;1.15;;;;;;;;;;5051248;28;20057;-71
2021/12/03 03:15:45;;;;;;;5.75;1.40;;;;;;;;;;5051339;28;20048;-72
2021/12/03 03:18:16;;;;;;;2.88;1.40;;;;;;;;;;5049883;28;20052;-71
2021/12/03 03:20:44;;;;;;;2.33;1.08;;;;;;;;;;5051159;28;20139;-71
2021/12/03 03:23:12;;;;;;;0.87;0.80;;;;;;;;;;5051383;28;20132;-72
2021/12/03 03:25:40;;;;;;;2.08;0.88;;;;;;;;;;5051424;28;20285;-71
2021/12/03 03:28:07;;;;;;;1.40;1.13;;;;;;;;;;5055095;28;20118;-71
2021/12/03 03:30:34;;;;;;;0.95;0.63;;;;;;;;;;5054882;28;20049;-71
2021/12/03 03:33:01;;;;;;;1.27;0.52;;;;;;;;;;5054751;28;20088;-72
2021/12/03 03:35:27;;;;;;;1.90;0.80;;;;;;;;;;5054996;28;20080;-71
2021/12/03 03:37:54;;;;;;;0.75;0.60;;;;;;;;;;5054976;28;20057;-70
2021/12/03 03:40:20;;;;;;;0.90;0.70;;;;;;;;;;5054658;28;20512;-71
2021/12/03 03:42:47;;;;;;;0.60;0.47;;;;;;;;;;5054570;28;20092;-70
2021/12/03 03:45:16;;;;;;;0.52;0.52;;;;;;;;;;5054522;28;20080;-70
2021/12/03 03:47:43;;;;;;;0.50;0.43;;;;;;;;;;5054783;28;20106;-71
2021/12/03 03:50:10;;;;;;;1.02;0.30;;;;;;;;;;5054418;28;20099;-70
2021/12/03 03:52:39;;;;;;;1.55;0.30;;;;;;;;;;5054719;28;20049;-70
2021/12/03 03:55:06;;;;;;;3.13;0.30;;;;;;;;;;5053490;28;20084;-71
2021/12/03 03:57:33;;;;;;;0.30;0.28;;;;;;;;;;5054773;28;20081;-71
2021/12/03 04:00:00;;;;;;;0.30;0.25;;;;;;;;;;5054555;28;20084;-70
2021/12/03 04:02:26;;;;;;;0.35;0.20;;;;;;;;;;5054490;28;20507;-70
2021/12/03 04:04:53;;;;;;;0.28;0.20;;;;;;;;;;5054288;28;20055;-70
2021/12/03 04:07:19;;;;;;;0.75;0.20;;;;;;;;;;5054363;28;20408;-69
2021/12/03 04:09:46;;;;;;;0.40;0.25;;;;;;;;;;5054418;28;20106;-70
2021/12/03 04:12:12;;;;;;;2.15;0.22;;;;;;;;;;5053852;28;20079;-70
2021/12/03 04:14:38;;;;;;;0.93;0.20;;;;;;;;;;5054365;28;20090;-70
2021/12/03 04:17:05;;;;;;;0.65;0.20;;;;;;;;;;5053954;28;20539;-70
2021/12/03 04:19:31;;;;;;;0.20;0.20;;;;;;;;;;5052935;28;20053;-70
2021/12/03 04:21:58;;;;;;;2.10;0.20;;;;;;;;;;5054000;28;20084;-70
2021/12/03 04:24:24;;;;;;;0.20;0.20;;;;;;;;;;5052369;28;20077;-70
2021/12/03 04:26:50;;;;;;;0.13;0.13;;;;;;;;;;5048980;28;20049;-69
2021/12/03 04:29:17;;;;;;;1.42;0.20;;;;;;;;;;5053688;28;20087;-70
2021/12/03 04:31:43;;;;;;;0.20;0.20;;;;;;;;;;5053829;28;20513;-70
2021/12/03 04:34:10;;;;;;;0.20;0.15;;;;;;;;;;5054063;28;20080;-69
2021/12/03 04:36:39;;;;;;;0.57;0.10;;;;;;;;;;5052838;28;20053;-70
2021/12/03 04:39:06;;;;;;;0.10;0.10;;;;;;;;;;5052158;28;20476;-70
2021/12/03 04:41:32;;;;;;;0.03;0.03;;;;;;;;;;5053621;28;20091;-70
2021/12/03 04:43:59;;;;;;;0.03;0.00;;;;;;;;;;5053509;28;20080;-69
2021/12/03 04:46:25;;;;;;;0.05;0.05;;;;;;;;;;5053541;28;20049;-69
2021/12/03 04:48:52;;;;;;;0.00;0.00;;;;;;;;;;5053667;28;20075;-69
2021/12/03 04:51:18;;;;;;;0.17;0.00;;;;;;;;;;5053330;28;20508;-69
2021/12/03 04:53:44;;;;;;;1.20;0.10;;;;;;;;;;5053265;28;20083;-70
2021/12/03 04:56:12;;;;;;;0.05;0.00;;;;;;;;;;5053722;28;20053;-69
2021/12/03 04:58:39;;;;;;;0.05;0.05;;;;;;;;;;5053513;28;20084;-69
2021/12/03 05:01:05;;;;;;;0.00;0.00;;;;;;;;;;5053196;28;20083;-68
2021/12/03 05:03:32;;;;;;;0.00;0.00;;;;;;;;;;5053222;28;20080;-69
2021/12/03 05:06:01;;;;;;;0.10;0.10;;;;;;;;;;5053057;28;20416;-69
2021/12/03 05:08:29;;;;;;;1.45;0.20;;;;;;;;;;5052978;28;20463;-68
2021/12/03 05:10:56;;;;;;;0.00;0.00;;;;;;;;;;5053243;28;20098;-69
2021/12/03 05:13:32;;;;;;;0.43;0.10;;;;;;;;;;5053047;28;20092;-68
2021/12/03 05:15:59;;;;;;;0.00;0.00;;;;;;;;;;5052815;28;20443;-68
2021/12/03 05:18:27;;;;;;;0.10;0.10;;;;;;;;;;5053172;28;20049;-69
2021/12/03 05:20:55;;;;;;;0.10;0.05;;;;;;;;;;5052717;28;20138;-69
2021/12/03 05:23:22;;;;;;;0.00;0.00;;;;;;;;;;5052650;28;20076;-68
2021/12/03 05:25:49;;;;;;;0.10;0.10;;;;;;;;;;5052938;28;20144;-68
2021/12/03 05:28:16;;;;;;;0.10;0.10;;;;;;;;;;5052910;28;20073;-68
2021/12/03 05:30:47;;;;;;;0.10;0.10;;;;;;;;;;5053006;28;20052;-68
2021/12/03 05:33:13;;;;;;;0.00;0.00;;;;;;;;;;5052407;28;20053;-69
2021/12/03 05:35:40;;;;;;;0.10;0.10;;;;;;;;;;5052565;28;20076;-68
2021/12/03 05:38:07;;;;;;;1.55;0.68;;;;;;;;;;5052691;28;20467;-68
2021/12/03 05:40:33;;;;;;;0.10;0.03;;;;;;;;;;5052603;28;20551;-68
2021/12/03 05:42:59;;;;;;;0.15;0.10;;;;;;;;;;5052589;28;20102;-69
2021/12/03 05:45:28;;;;;;;0.10;0.10;;;;;;;;;;5052224;28;20065;-68
2021/12/03 05:47:55;;;;;;;0.17;0.10;;;;;;;;;;5051870;28;20563;-68
2021/12/03 05:50:22;;;;;;;0.47;0.40;;;;;;;;;;5052427;28;20102;-69
2021/12/03 05:52:50;;;;;;;1.05;0.20;;;;;;;;;;5052318;28;20084;-69
2021/12/03 05:55:16;;;;;;;;;;;;;;;;;;5052798;28;20114;-69
2021/12/03 05:57:43;;;;;;;1.35;0.20;;;;;;;;;;5052194;28;19925;-69
2021/12/03 06:00:12;;;;;;;0.20;0.20;;;;;;;;;;5052105;28;20155;-68
2021/12/03 06:02:39;;;;;;;0.20;0.20;;;;;;;;;;5052172;28;20087;-68
2021/12/03 06:05:06;;;;;;;0.20;0.20;;;;;;;;;;5052222;28;20051;-68
2021/12/03 06:07:33;;;;;;;0.17;0.08;;;;;;;;;;5052067;28;20107;-68
2021/12/03 06:09:59;;;;;;;0.20;0.20;;;;;;;;;;5051889;28;20076;-68
2021/12/03 06:12:25;;;;;;;0.47;0.47;;;;;;;;;;5051635;28;20409;-69
2021/12/03 06:14:52;;;;;;;2.00;0.93;;;;;;;;;;5052033;28;20098;-68
2021/12/03 06:17:18;;;;;;;0.50;0.50;;;;;;;;;;5051934;28;20563;-69
2021/12/03 06:19:45;;;;;;;0.85;0.85;;;;;;;;;;5052032;28;20166;-69
2021/12/03 06:22:11;;;;;;;1.42;0.63;;;;;;;;;;5051893;28;20095;-69
2021/12/03 06:24:40;;;;;;;0.55;0.50;;;;;;;;;;5052319;28;20128;-69
2021/12/03 06:27:06;;;;;;;0.75;0.50;;;;;;;;;;5051612;28;20098;-70
2021/12/03 06:29:33;;;;;;;1.15;0.80;;;;;;;;;;5051814;28;20065;-69
2021/12/03 06:32:04;;;;;;;1.95;1.23;;;;;;;;;;5051967;28;20461;-69
2021/12/03 06:34:31;;;;;;;1.60;1.13;;;;;;;;;;5051906;28;20488;-69
2021/12/03 06:36:57;;;;;;;1.95;1.00;;;;;;;;;;5050520;28;20106;-69
2021/12/03 06:39:23;;;;;;;1.27;1.05;;;;;;;;;;5051553;28;20113;-69
2021/12/03 06:41:50;;;;;;;1.50;0.82;;;;;;;;;;5051769;28;20053;-69
2021/12/03 06:44:17;;;;;;;0.95;0.77;;;;;;;;;;5051367;28;20080;-69
2021/12/03 06:46:44;;;;;;;2.00;0.85;;;;;;;;;;5051381;28;20076;-69
2021/12/03 06:49:10;;;;;;;1.13;0.80;;;;;;;;;;5051780;28;20095;-69
2021/12/03 06:51:41;;;;;;;0.85;0.70;;;;;;;;;;5051594;28;20045;-69
2021/12/03 06:54:09;;;;;;;1.38;0.65;;;;;;;;;;5051493;28;20049;-69
2021/12/03 06:56:48;;;;;;;;;;;;;;;;;;5051761;28;20535;-69
2021/12/03 06:59:15;;;;;;;1.83;0.90;;;;;;;;;;5024309;28;20253;-69
2021/12/03 07:01:42;;;;;;;4.40;1.55;;;;;;;;;;5034160;28;20053;-69
2021/12/03 07:04:09;;;;;;;1.10;0.93;;;;;;;;;;5035068;28;20044;-69
2021/12/03 07:06:36;;;;;;;1.95;1.20;;;;;;;;;;5047914;28;20523;-70
2021/12/03 07:09:03;;;;;;;3.40;1.40;;;;;;;;;;5055238;28;20076;-70
2021/12/03 07:11:29;;;;;;;3.27;1.37;;;;;;;;;;5055096;28;20147;-70
2021/12/03 07:13:56;;;;;;;1.90;1.42;;;;;;;;;;5055152;28;20484;-70
2021/12/03 07:16:22;;;;;;;2.33;1.48;;;;;;;;;;5055320;28;20049;-69
2021/12/03 07:18:49;;;;;;;4.55;1.67;;;;;;;;;;5055068;28;20053;-69
2021/12/03 07:21:16;;;;;;;3.90;1.65;;;;;;;;;;5054753;28;20493;-70
2021/12/03 07:23:42;;;;;;;4.00;2.10;;;;;;;;;;5054761;28;20080;-70
2021/12/03 07:26:08;;;;;;;3.88;1.90;;;;;;;;;;5054805;28;20049;-69
2021/12/03 07:28:35;;;;;;;5.10;1.90;;;;;;;;;;5054755;28;20041;-69
2021/12/03 07:31:02;;;;;;;5.80;2.17;;;;;;;;;;5054609;28;20041;-70
2021/12/03 07:33:31;;;;;;;3.63;2.07;;;;;;;;;;5054492;28;20072;-70
2021/12/03 07:35:57;;;;;;;7.55;2.90;;;;;;;;;;5054439;28;20324;-70
2021/12/03 07:38:24;;;;;;;8.65;3.00;;;;;;;;;;5054641;28;20053;-70
2021/12/03 07:40:51;;;;;;;7.22;3.97;;;;;;;;;;5054657;28;20091;-70
2021/12/03 07:43:17;;;;;;;10.52;4.35;;;;;;;;;;5039922;28;20127;-70
2021/12/03 07:45:45;;;;;;;7.88;4.07;;;;;;;;;;5054451;28;20060;-70
2021/12/03 07:48:11;;;;;;;10.93;3.95;;;;;;;;;;5054507;28;20052;-70
2021/12/03 07:50:39;;;;;;;11.93;4.40;;;;;;;;;;5054050;28;20056;-70
2021/12/03 07:53:06;;;;;;;;;;;;;;;;;;5054099;28;20077;-70
2021/12/03 07:55:32;;;;;;;8.73;3.70;;;;;;;;;;5054485;28;19960;-69
2021/12/03 07:58:01;;;;;;;9.07;4.00;;;;;;;;;;5053297;28;20079;-70
2021/12/03 08:00:28;;;;;;;12.52;4.25;;;;;;;;;;5037822;28;20041;-69
2021/12/03 08:03:13;;;;;;;11.02;4.57;;;;;;;;;;5054555;28;20057;-71
2021/12/03 08:05:40;;;;;;;15.93;4.97;;;;;;;;;;5053986;28;20491;-70
2021/12/03 08:08:06;;;;;;;12.43;4.95;;;;;;;;;;5053391;28;20049;-71
2021/12/03 08:10:36;;;;;;;14.20;5.00;;;;;;;;;;5039492;28;20045;-71
2021/12/03 08:13:03;;;;;;;15.27;4.97;;;;;;;;;;5032206;28;20124;-71
2021/12/03 08:15:31;;;;;;;13.55;5.03;;;;;;;;;;5049881;28;20060;-72
2021/12/03 08:17:57;;;;;;;;;;;;;;;;;;5043798;28;20123;-71
2021/12/03 08:20:23;;;;;;;15.10;5.32;;;;;;;;;;5033453;28;19932;-72
2021/12/03 08:22:50;;;;;;;15.10;5.60;;;;;;;;;;5039005;28;20045;-70
2021/12/03 08:25:16;;;;;;;15.27;6.13;;;;;;;;;;5039183;28;20134;-70
2021/12/03 08:27:44;;;;;;;13.02;6.13;;;;;;;;;;5054083;28;20464;-72
2021/12/03 08:30:12;;;;;;;15.68;6.13;;;;;;;;;;5049766;28;20095;-71
2021/12/03 08:32:41;;;;;;;18.33;6.57;;;;;;;;;;5041185;28;20103;-71
2021/12/03 08:35:07;;;;;;;;;;;;;;;;;;5039358;28;20057;-71
2021/12/03 08:37:34;;;;;;;28.92;15.00;;;;;;;;;;5053741;28;19932;-72
2021/12/03 08:40:00;;;;;;;29.25;15.65;;;;;;;;;;5053644;28;20077;-71
2021/12/03 08:42:27;;;;;;;31.83;15.43;;;;;;;;;;5042769;28;20115;-72
2021/12/03 08:44:53;;;;;;;21.10;9.43;;;;;;;;;;5042379;28;20106;-71
2021/12/03 08:47:19;;;;;;;19.15;8.55;;;;;;;;;;5053410;28;20084;-71
2021/12/03 08:49:51;;;;;;;23.92;9.93;;;;;;;;;;5053410;28;20072;-71
2021/12/03 08:54:54;;;;;;;24.13;9.95;;;;;;;;;;5041571;28;20487;-71
2021/12/03 08:57:26;;;;;;;20.30;8.95;;;;;;;;;;5050556;28;20049;-71
2021/12/03 08:59:54;;;;;;;21.23;9.95;;;;;;;;;;5053382;28;20114;-71
2021/12/03 09:02:20;;;;;;;22.02;9.88;;;;;;;;;;5053115;28;20103;-71
2021/12/03 09:04:48;;;;;;;24.08;10.52;;;;;;;;;;5053186;28;20045;-71
2021/12/03 09:07:15;;;;;;;23.95;9.88;;;;;;;;;;5052970;28;20071;-71
2021/12/03 09:09:41;;;;;;;36.85;21.17;;;;;;;;;;5052245;28;20045;-70
2021/12/03 09:12:08;;;;;;;21.15;12.27;;;;;;;;;;5053009;28;20056;-72
2021/12/03 09:14:41;;;;;;;21.98;12.68;;;;;;;;;;5032986;28;20132;-76
2021/12/03 09:22:41;;;;;;;21.40;10.75;;;;;;;;;;5032273;28;20131;-71
2021/12/03 09:25:10;;;;;;;18.65;9.63;;;;;;;;;;5031272;28;20080;-71
2021/12/03 09:27:37;;;;;;;17.23;9.70;;;;;;;;;;5032671;28;20045;-72
2021/12/03 09:30:07;;;;;;;17.13;9.88;;;;;;;;;;5037614;28;20484;-70
2021/12/03 09:32:34;;;;;;;16.90;9.10;;;;;;;;;;5041639;28;20075;-71
2021/12/03 09:35:01;;;;;;;26.30;16.33;;;;;;;;;;5048567;28;20052;-70
2021/12/03 09:37:28;;;;;;;22.63;10.23;;;;;;;;;;5034485;28;20055;-71
2021/12/03 09:39:56;;;;;;;17.40;9.77;;;;;;;;;;5033888;28;20079;-69
2021/12/03 09:42:23;;;;;;;25.30;12.85;;;;;;;;;;5037992;28;20077;-70
2021/12/03 09:44:52;;;;;;;31.15;18.15;;;;;;;;;;5030385;28;20095;-71
2021/12/03 09:47:19;;;;;;;24.92;15.02;;;;;;;;;;5031977;28;20049;-71
2021/12/03 09:49:52;;;;;;;20.37;11.07;;;;;;;;;;5035041;28;20057;-71
2021/12/03 09:52:39;;;;;;;19.08;9.32;;;;;;;;;;5036949;28;20505;-70
2021/12/03 09:55:11;;;;;;;26.42;16.65;;;;;;;;;;5037436;28;20083;-70
2021/12/03 09:57:47;;;;;;;25.58;15.93;;;;;;;;;;5052441;28;20060;-69
2021/12/03 10:02:57;;;;;;;25.67;18.55;;;;;;;;;;5052340;28;20135;-70
2021/12/03 10:11:38;;;;;;;11.52;6.75;;;;;;;;;;5034010;28;20099;-70
2021/12/03 10:16:22;;;;;;;12.00;9.10;;;;;;;;;;5031621;28;20061;-71
2021/12/03 10:19:02;;;;;;;10.70;8.15;;;;;;;;;;5030035;28;20485;-70
2021/12/03 10:21:53;;;;;;;8.73;6.05;;;;;;;;;;5036235;28;20048;-72
2021/12/03 11:06:00;;;;;;;7.35;4.82;;;;;;;;;;5051554;28;20081;-67
2021/12/03 11:14:38;;;;;;;8.38;6.85;;;;;;;;;;5051410;28;20041;-70
2021/12/03 11:17:16;;;;;;;9.02;6.63;;;;;;;;;;5051006;28;20045;-71
2021/12/03 12:20:06;;;;;;;6.95;5.22;;;;;;;;;;5054093;28;20049;-67
2021/12/03 12:42:15;;;;;;;5.47;4.72;;;;;;;;;;5048495;28;20048;-67
2021/12/03 12:48:49;;;;;;;6.03;4.20;;;;;;;;;;5052802;28;20571;-67
2021/12/03 13:20:35;;;;;;;5.25;4.72;;;;;;;;;;5052852;28;20067;-67
2021/12/03 13:23:40;;;;;;;5.72;5.07;;;;;;;;;;5051838;28;20548;-67
2021/12/03 13:26:44;;;;;;;7.97;6.53;;;;;;;;;;5052822;28;20405;-67
2021/12/03 14:31:53;;;;;;;7.63;5.50;;;;;;;;;;5021692;28;20045;-67
2021/12/03 14:34:26;;;;;;;9.70;5.95;;;;;;;;;;5040148;28;20087;-68
2021/12/03 14:54:30;;;;;;;5.65;4.25;;;;;;;;;;5056441;28;20049;-68
2021/12/03 14:57:10;;;;;;;7.15;5.38;;;;;;;;;;5031304;28;20080;-67
2021/12/03 14:59:39;;;;;;;6.25;4.65;;;;;;;;;;5030967;28;20054;-68
2021/12/03 15:02:20;;;;;;;7.47;4.43;;;;;;;;;;5030890;28;20521;-68
2021/12/03 15:07:44;;;;;;;7.68;4.72;;;;;;;;;;5051489;28;20463;-68
2021/12/03 15:10:26;;;;;;;7.22;6.03;;;;;;;;;;5037152;28;20439;-69
2021/12/03 15:23:29;;;;;;;9.43;7.43;;;;;;;;;;5055276;28;20057;-68
2021/12/03 15:55:14;;;;;;;12.60;9.38;;;;;;;;;;5054802;28;20091;-72
2021/12/03 16:08:32;;;;;;;12.40;8.93;;;;;;;;;;5054217;28;20048;-69
2021/12/03 16:13:51;;;;;;;27.17;15.10;;;;;;;;;;5054447;28;20115;-71
2021/12/03 16:24:46;;;;;;;14.27;9.65;;;;;;;;;;5054196;28;20390;-70
2021/12/03 16:27:39;;;;;;;12.05;8.57;;;;;;;;;;5053937;28;20080;-69
2021/12/03 16:44:12;;;;;;;17.83;10.50;;;;;;;;;;5053521;28;20079;-68
2021/12/03 16:46:46;;;;;;;17.27;10.88;;;;;;;;;;5053617;28;20049;-71
2021/12/03 16:51:52;;;;;;;11.90;8.40;;;;;;;;;;5053468;28;20473;-69
2021/12/03 16:54:51;;;;;;;14.35;9.85;;;;;;;;;;5053600;28;20049;-67
2021/12/03 16:57:18;;;;;;;14.07;8.55;;;;;;;;;;5053271;28;20140;-69
2021/12/03 16:59:46;;;;;;;24.05;16.55;;;;;;;;;;5053237;28;20056;-70
2021/12/03 17:02:21;;;;;;;21.02;14.65;;;;;;;;;;5053421;28;20102;-70
2021/12/03 17:08:13;;;;;;;33.45;22.08;;;;;;;;;;5032660;28;20460;-69
2021/12/03 17:10:35;;;;;;;38.10;22.30;;;;;;;;;;5037721;28;20106;-70
2021/12/03 17:48:29;;;;;;;27.08;17.52;;;;;;;;;;5031325;28;20050;-68
2021/12/03 17:51:08;;;;;;;28.27;23.27;;;;;;;;;;5052119;28;20488;-69
2021/12/03 17:53:58;;;;;;;26.48;18.42;;;;;;;;;;5052351;28;20049;-68
2021/12/03 17:56:26;;;;;;;25.98;16.67;;;;;;;;;;5052530;28;20110;-68
2021/12/03 17:59:04;;;;;;;24.83;15.95;;;;;;;;;;5052372;28;20098;-69
2021/12/03 18:56:03;;;;;;;18.90;12.55;;;;;;;;;;5031819;28;20045;-69
2021/12/03 18:58:30;;;;;;;22.75;14.57;;;;;;;;;;5047675;28;20467;-69
2021/12/03 19:00:58;;;;;;;25.05;14.68;;;;;;;;;;5055858;28;20041;-68
2021/12/03 19:03:57;;;;;;;25.58;15.93;;;;;;;;;;5055714;28;20080;-68
2021/12/03 19:06:30;;;;;;;23.77;15.27;;;;;;;;;;5055317;28;20412;-68
2021/12/03 19:09:04;;;;;;;24.52;15.90;;;;;;;;;;5055430;28;20132;-67
2021/12/03 19:11:35;;;;;;;22.05;15.70;;;;;;;;;;5055588;28;20478;-68
2021/12/03 19:14:02;;;;;;;23.00;15.32;;;;;;;;;;5055147;28;20555;-68
2021/12/03 19:16:30;;;;;;;21.17;13.70;;;;;;;;;;5055422;28;20080;-69
2021/12/03 19:18:57;;;;;;;23.90;15.25;;;;;;;;;;5055404;28;20201;-68
2021/12/03 19:21:25;;;;;;;24.67;17.08;;;;;;;;;;5055542;28;20045;-67
2021/12/03 19:23:54;;;;;;;21.92;14.23;;;;;;;;;;5055376;28;20067;-67
2021/12/03 19:26:21;;;;;;;29.95;17.48;;;;;;;;;;5040743;28;20072;-67
2021/12/03 19:28:49;;;;;;;23.73;16.10;;;;;;;;;;5054737;28;20072;-66
2021/12/03 19:31:16;;;;;;;47.50;31.42;;;;;;;;;;5054371;28;20492;-67
2021/12/03 19:33:43;;;;;;;29.90;21.55;;;;;;;;;;5054390;28;20049;-66
2021/12/03 19:36:10;;;;;;;31.08;22.67;;;;;;;;;;5052435;28;20141;-67
2021/12/03 19:38:39;;;;;;;36.50;27.55;;;;;;;;;;5034116;28;20132;-67
2021/12/03 19:41:19;;;;;;;48.80;36.63;;;;;;;;;;5034088;28;20123;-68
2021/12/03 19:43:51;;;;;;;24.42;16.08;;;;;;;;;;5049798;28;20072;-67
2021/12/03 19:46:20;;;;;;;23.00;15.93;;;;;;;;;;5053910;28;20127;-67
2021/12/03 19:48:58;;;;;;;26.63;14.48;;;;;;;;;;5054070;28;20139;-67
2021/12/03 19:51:27;;;;;;;;;;;;;;;;;;5054730;28;20095;-67
2021/12/03 19:53:59;;;;;;;23.92;14.77;;;;;;;;;;5053953;28;19939;-67
2021/12/03 19:56:27;;;;;;;27.17;17.92;;;;;;;;;;5050945;28;20130;-73
2021/12/03 19:58:55;;;;;;;31.80;20.40;;;;;;;;;;5041566;28;20127;-73
2021/12/03 20:01:22;;;;;;;30.40;19.20;;;;;;;;;;5054525;28;20084;-74
2021/12/03 20:03:51;;;;;;;31.30;19.42;;;;;;;;;;5054753;28;20051;-72
2021/12/03 20:06:18;;;;;;;28.25;17.77;;;;;;;;;;5052711;28;20099;-72
2021/12/03 20:08:45;;;;;;;29.88;19.10;;;;;;;;;;5046712;28;20076;-72
2021/12/03 20:11:11;;;;;;;27.73;18.67;;;;;;;;;;5033775;28;20075;-71
2021/12/03 20:13:45;;;;;;;33.47;20.45;;;;;;;;;;5034359;28;20103;-73
2021/12/03 20:16:22;;;;;;;30.63;20.83;;;;;;;;;;5051591;28;20096;-73
2021/12/03 20:18:54;;;;;;;28.73;19.80;;;;;;;;;;5054043;28;20049;-73
2021/12/03 20:21:23;;;;;;;30.55;19.73;;;;;;;;;;5053968;28;20524;-73
2021/12/03 20:26:58;;;;;;;27.27;19.38;;;;;;;;;;5051224;28;20068;-72
2021/12/03 20:29:41;;;;;;;28.73;19.52;;;;;;;;;;5068132;28;20508;-73
2021/12/03 20:32:24;;;;;;;31.10;21.75;;;;;;;;;;5050570;28;20072;-72
2021/12/03 20:39:58;;;;;;;35.80;24.00;;;;;;;;;;5036103;28;20107;-73
2021/12/03 20:42:35;;;;;;;33.50;22.83;;;;;;;;;;5031789;28;20045;-74
2021/12/03 20:48:04;;;;;;;31.48;22.65;;;;;;;;;;5037973;28;20094;-73
2021/12/03 20:53:15;;;;;;;33.13;21.15;;;;;;;;;;5044340;28;20095;-73
2021/12/03 21:09:30;;;;;;;27.27;18.65;;;;;;;;;;5053314;28;20080;-73
2021/12/03 21:11:59;;;;;;;29.20;19.65;;;;;;;;;;5052914;28;20096;-72
2021/12/03 21:14:31;;;;;;;29.35;19.27;;;;;;;;;;5046506;28;20502;-74
2021/12/03 21:19:47;;;;;;;30.20;18.75;;;;;;;;;;5034285;28;20191;-73
2021/12/03 21:22:20;;;;;;;32.45;20.17;;;;;;;;;;5052671;28;20099;-73
2021/12/03 21:24:49;;;;;;;36.15;23.67;;;;;;;;;;5053096;28;20460;-72
2021/12/03 21:27:20;;;;;;;39.25;25.52;;;;;;;;;;5052845;28;20091;-74
2021/12/03 21:43:03;;;;;;;38.55;26.60;;;;;;;;;;5051284;28;20107;-74
2021/12/03 21:45:29;;;;;;;36.42;24.63;;;;;;;;;;5052569;28;20136;-73
2021/12/03 21:47:56;;;;;;;35.42;23.73;;;;;;;;;;5052254;28;20481;-73
2021/12/03 21:50:22;;;;;;;35.33;23.13;;;;;;;;;;5052537;28;20084;-72
2021/12/03 21:52:48;;;;;;;41.85;23.33;;;;;;;;;;5052245;28;20544;-73
2021/12/03 21:55:15;;;;;;;34.10;22.92;;;;;;;;;;5052367;28;20049;-72
2021/12/03 21:57:41;;;;;;;52.42;33.05;;;;;;;;;;5052479;28;20450;-73
2021/12/03 22:00:08;;;;;;;61.22;37.25;;;;;;;;;;5051309;28;20083;-73
2021/12/03 22:02:35;;;;;;;47.47;30.80;;;;;;;;;;5052044;28;20045;-73
2021/12/03 22:05:03;;;;;;;43.60;28.08;;;;;;;;;;5052417;28;20118;-72
2021/12/03 22:07:29;;;;;;;43.15;26.95;;;;;;;;;;5052150;28;20084;-72
2021/12/03 22:09:56;;;;;;;45.15;28.15;;;;;;;;;;5052174;28;20080;-72
2021/12/03 22:12:22;;;;;;;46.25;28.80;;;;;;;;;;5051899;28;20076;-72
2021/12/03 22:14:49;;;;;;;41.72;27.40;;;;;;;;;;5052074;28;20068;-72
2021/12/03 22:17:15;;;;;;;41.83;27.55;;;;;;;;;;5051850;28;20083;-71
2021/12/03 22:19:41;;;;;;;43.92;26.13;;;;;;;;;;5051653;28;20075;-72
2021/12/03 22:22:08;;;;;;;42.03;26.00;;;;;;;;;;5052028;28;20076;-73
2021/12/03 22:24:40;;;;;;;43.92;26.45;;;;;;;;;;5051725;28;20053;-73
2021/12/03 22:27:07;;;;;;;39.53;25.20;;;;;;;;;;5044108;28;20096;-73
2021/12/03 22:29:34;;;;;;;34.40;24.25;;;;;;;;;;5043540;28;20099;-73
2021/12/03 22:32:02;;;;;;;36.80;24.35;;;;;;;;;;5051661;28;20468;-73
2021/12/03 22:34:28;;;;;;;38.13;24.33;;;;;;;;;;5051629;28;20059;-74
2021/12/03 22:36:55;;;;;;;33.85;22.77;;;;;;;;;;5039834;28;20103;-73
2021/12/03 22:39:21;;;;;;;35.08;23.40;;;;;;;;;;5039560;28;20092;-74
2021/12/03 22:41:50;;;;;;;31.85;22.50;;;;;;;;;;5050565;28;20115;-73
2021/12/03 22:44:17;;;;;;;35.90;22.58;;;;;;;;;;5051706;28;20099;-73